createdAt,value
2019-01-14T00:01:58.794Z,5.64
2019-01-14T00:04:30.125Z,5.67
2019-01-14T00:07:02.570Z,5.71
2019-01-14T00:09:33.888Z,5.72
2019-01-14T00:12:05.205Z,5.64
2019-01-14T00:14:36.667Z,5.72
2019-01-14T00:17:08.217Z,5.75
2019-01-14T00:19:42.060Z,5.75
2019-01-14T00:22:13.601Z,5.84
2019-01-14T00:24:45.119Z,5.82
2019-01-14T00:27:16.597Z,5.82
2019-01-14T00:29:47.983Z,5.84
2019-01-14T00:32:19.302Z,5.90
2019-01-14T00:34:50.577Z,5.83
2019-01-14T00:37:23.189Z,5.87
2019-01-14T00:39:54.721Z,5.95
2019-01-14T00:42:26.340Z,5.90
2019-01-14T00:44:57.716Z,5.85
2019-01-14T00:47:29.147Z,5.92
2019-01-14T00:50:00.427Z,6.00
2019-01-14T00:52:35.405Z,5.97
2019-01-14T00:55:08.011Z,5.98
2019-01-14T00:57:39.507Z,5.86
2019-01-14T01:00:17.444Z,5.83
2019-01-14T01:02:48.951Z,5.79
2019-01-14T01:05:20.226Z,5.78
2019-01-14T01:07:51.513Z,5.74
2019-01-14T01:10:23.279Z,5.73
2019-01-14T01:12:54.586Z,5.68
2019-01-14T01:15:25.899Z,5.81
2019-01-14T01:18:00.493Z,5.80
2019-01-14T01:20:32.222Z,5.84
2019-01-14T01:23:04.199Z,5.96
2019-01-14T01:25:36.099Z,5.93
2019-01-14T01:28:12.424Z,5.89
2019-01-14T01:30:45.195Z,5.80
2019-01-14T01:33:17.478Z,5.81
2019-01-14T01:35:49.686Z,5.73
2019-01-14T01:38:21.003Z,5.79
2019-01-14T01:40:52.895Z,5.72
2019-01-14T01:43:25.177Z,5.62
2019-01-14T01:45:58.154Z,5.55
2019-01-14T01:48:29.995Z,5.49
2019-01-14T01:51:01.426Z,5.49
2019-01-14T01:53:33.001Z,5.50
2019-01-14T01:56:08.786Z,5.44
2019-01-14T01:58:40.147Z,5.46
2019-01-14T02:01:11.406Z,5.43
2019-01-14T02:03:42.679Z,5.38
2019-01-14T02:06:27.981Z,5.38
2019-01-14T02:09:16.354Z,5.32
2019-01-14T02:12:04.414Z,5.38
2019-01-14T02:14:36.086Z,5.42
2019-01-14T02:17:07.985Z,5.36
2019-01-14T02:19:39.459Z,5.46
2019-01-14T02:22:10.727Z,5.44
2019-01-14T02:24:42.102Z,5.44
2019-01-14T02:27:13.572Z,5.50
2019-01-14T02:29:44.816Z,5.57
2019-01-14T02:32:16.124Z,5.59
2019-01-14T02:34:47.346Z,5.62
2019-01-14T02:37:20.263Z,5.62
2019-01-14T02:39:51.398Z,5.63
2019-01-14T02:42:22.664Z,5.57
2019-01-14T02:44:53.917Z,5.52
2019-01-14T02:47:25.198Z,5.52
2019-01-14T02:49:56.444Z,5.54
2019-01-14T02:52:27.742Z,5.56
2019-01-14T02:54:59.009Z,5.53
2019-01-14T02:57:30.185Z,5.47
2019-01-14T03:00:01.422Z,5.51
2019-01-14T03:02:32.667Z,5.55
2019-01-14T03:05:04.153Z,5.59
2019-01-14T03:07:35.525Z,5.50
2019-01-14T03:10:09.127Z,5.48
2019-01-14T03:12:40.373Z,5.46
2019-01-14T03:15:17.904Z,5.47
2019-01-14T03:17:50.293Z,5.54
2019-01-14T03:20:23.622Z,5.53
2019-01-14T03:22:58.474Z,5.60
2019-01-14T03:25:33.238Z,5.51
2019-01-14T03:28:27.795Z,5.45
2019-01-14T03:30:59.981Z,5.49
2019-01-14T03:33:31.368Z,5.47
2019-01-14T03:36:05.105Z,5.44
2019-01-14T03:38:38.108Z,5.38
2019-01-14T03:41:10.086Z,5.44
2019-01-14T03:43:43.056Z,5.40
2019-01-14T03:46:15.082Z,5.33
2019-01-14T03:48:47.083Z,5.33
2019-01-14T03:51:18.705Z,5.36
2019-01-14T03:53:49.999Z,5.42
2019-01-14T03:56:21.617Z,5.44
2019-01-14T03:58:53.388Z,5.46
2019-01-14T04:01:25.041Z,5.44
2019-01-14T04:03:56.835Z,5.50
2019-01-14T04:06:28.459Z,5.55
2019-01-14T04:09:00.361Z,5.45
2019-01-14T04:11:31.808Z,5.49
2019-01-14T04:14:03.289Z,5.46
2019-01-14T04:16:35.195Z,5.48
2019-01-14T04:19:07.649Z,5.57
2019-01-14T04:21:39.359Z,5.55
2019-01-14T04:24:10.576Z,5.48
2019-01-14T04:29:23.583Z,5.48
2019-01-14T04:31:56.138Z,5.39
2019-01-14T04:34:27.404Z,5.52
2019-01-14T04:36:58.647Z,5.53
2019-01-14T04:39:29.968Z,5.51
2019-01-14T04:42:01.229Z,5.51
2019-01-14T04:44:32.441Z,5.52
2019-01-14T04:47:03.737Z,5.50
2019-01-14T04:49:34.923Z,5.53
2019-01-14T04:52:06.301Z,5.51
2019-01-14T04:54:37.589Z,5.51
2019-01-14T04:57:09.005Z,5.48
2019-01-14T04:59:40.267Z,5.46
2019-01-14T05:02:11.569Z,5.37
2019-01-14T05:04:42.716Z,5.28
2019-01-14T05:07:14.037Z,5.22
2019-01-14T05:09:45.329Z,5.19
2019-01-14T05:12:16.635Z,5.15
2019-01-14T05:14:47.874Z,5.11
2019-01-14T05:17:20.254Z,5.09
2019-01-14T05:19:51.494Z,5.11
2019-01-14T05:22:22.773Z,5.09
2019-01-14T05:24:54.007Z,5.12
2019-01-14T05:27:25.347Z,5.08
2019-01-14T05:29:56.580Z,5.07
2019-01-14T05:32:27.907Z,5.21
2019-01-14T05:34:59.268Z,5.30
2019-01-14T05:37:37.166Z,5.27
2019-01-14T05:40:04.948Z,5.35
2019-01-14T05:42:36.167Z,5.34
2019-01-14T05:45:08.495Z,5.37
2019-01-14T05:47:39.813Z,5.36
2019-01-14T05:50:13.175Z,5.36
2019-01-14T05:52:44.756Z,5.40
2019-01-14T05:55:16.789Z,5.32
2019-01-14T05:57:48.131Z,5.32
2019-01-14T06:00:42.628Z,5.33
2019-01-14T06:03:13.816Z,5.32
2019-01-14T06:05:45.040Z,5.30
2019-01-14T06:08:16.279Z,5.27
2019-01-14T06:10:47.449Z,5.24
2019-01-14T06:13:18.700Z,5.29
2019-01-14T06:15:49.958Z,5.33
2019-01-14T06:18:21.194Z,5.25
2019-01-14T06:20:52.399Z,5.31
2019-01-14T06:23:23.586Z,5.30
2019-01-14T06:25:54.821Z,5.28
2019-01-14T06:28:26.045Z,5.29
2019-01-14T06:30:57.191Z,5.28
2019-01-14T06:33:28.357Z,5.08
2019-01-14T06:35:59.597Z,5.10
2019-01-14T06:38:30.743Z,4.96
2019-01-14T06:41:01.840Z,4.97
2019-01-14T06:43:33.161Z,4.98
2019-01-14T06:46:04.411Z,4.94
2019-01-14T06:48:35.780Z,4.92
2019-01-14T06:51:07.575Z,4.90
2019-01-14T06:53:38.840Z,4.90
2019-01-14T06:56:10.119Z,4.94
2019-01-14T06:58:41.458Z,4.97
2019-01-14T07:01:12.767Z,4.93
2019-01-14T07:03:44.161Z,4.98
2019-01-14T07:06:15.409Z,4.93
2019-01-14T07:08:47.186Z,4.68
2019-01-14T07:11:19.592Z,4.46
2019-01-14T07:13:50.902Z,4.36
2019-01-14T07:16:22.188Z,4.21
2019-01-14T07:18:53.551Z,4.17
2019-01-14T07:21:24.794Z,4.28
2019-01-14T07:23:56.072Z,4.30
2019-01-14T07:26:27.381Z,4.28
2019-01-14T07:28:58.594Z,4.22
2019-01-14T07:31:36.612Z,4.29
2019-01-14T07:34:08.079Z,4.12
2019-01-14T07:36:39.371Z,3.91
2019-01-14T07:39:11.622Z,3.86
2019-01-14T07:41:43.061Z,3.78
2019-01-14T07:44:14.353Z,3.84
2019-01-14T07:46:45.605Z,3.85
2019-01-14T07:49:16.872Z,3.87
2019-01-14T07:51:48.354Z,3.72
2019-01-14T07:54:19.681Z,3.73
2019-01-14T07:56:53.495Z,3.70
2019-01-14T07:59:24.744Z,3.83
2019-01-14T08:01:56.009Z,3.77
2019-01-14T08:04:28.075Z,3.78
2019-01-14T08:06:59.462Z,3.81
2019-01-14T08:09:30.856Z,3.90
2019-01-14T08:12:02.116Z,3.80
2019-01-14T08:14:33.346Z,3.77
2019-01-14T08:17:04.679Z,3.89
2019-01-14T08:19:36.046Z,3.60
2019-01-14T08:22:07.446Z,3.60
2019-01-14T08:24:38.821Z,3.53
2019-01-14T08:27:10.085Z,3.55
2019-01-14T08:29:41.340Z,3.72
2019-01-14T08:32:12.624Z,3.83
2019-01-14T08:34:43.909Z,3.94
2019-01-14T08:37:15.059Z,4.01
2019-01-14T08:39:46.339Z,4.07
2019-01-14T08:42:17.862Z,4.13
2019-01-14T08:44:49.259Z,4.00
2019-01-14T08:47:21.723Z,4.01
2019-01-14T08:49:52.909Z,3.97
2019-01-14T08:52:24.235Z,3.84
2019-01-14T08:54:55.624Z,3.80
2019-01-14T08:57:26.888Z,3.76
2019-01-14T09:00:00.237Z,3.82
2019-01-14T09:02:32.701Z,4.00
2019-01-14T09:05:06.225Z,4.16
2019-01-14T09:07:37.550Z,4.02
2019-01-14T09:10:13.235Z,3.94
2019-01-14T09:12:44.445Z,4.21
2019-01-14T09:15:17.484Z,4.34
2019-01-14T09:17:49.366Z,4.49
2019-01-14T09:20:23.745Z,4.63
2019-01-14T09:22:55.125Z,4.76
2019-01-14T09:25:26.471Z,4.63
2019-01-14T09:27:57.764Z,4.50
2019-01-14T09:30:29.423Z,4.49
2019-01-14T09:33:03.743Z,4.38
2019-01-14T09:35:34.994Z,4.25
2019-01-14T09:38:06.348Z,4.21
2019-01-14T09:40:37.531Z,4.22
2019-01-14T09:43:08.905Z,4.23
2019-01-14T09:45:40.162Z,4.29
2019-01-14T09:48:11.436Z,4.30
2019-01-14T09:50:42.687Z,4.34
2019-01-14T09:53:13.907Z,4.38
2019-01-14T09:55:45.070Z,4.43
2019-01-14T09:58:16.324Z,4.58
2019-01-14T10:00:47.517Z,4.67
2019-01-14T10:03:22.246Z,4.59
2019-01-14T10:05:53.549Z,4.56
2019-01-14T10:08:24.942Z,4.60
2019-01-14T10:10:56.203Z,4.65
2019-01-14T10:13:27.565Z,4.80
2019-01-14T10:15:58.825Z,5.21
2019-01-14T10:18:30.130Z,5.27
2019-01-14T10:21:01.393Z,5.23
2019-01-14T10:23:32.646Z,5.19
2019-01-14T10:26:03.970Z,5.08
2019-01-14T10:28:36.228Z,5.03
2019-01-14T10:31:07.504Z,5.13
2019-01-14T10:33:40.789Z,5.19
2019-01-14T10:36:12.048Z,5.28
2019-01-14T10:38:50.162Z,5.26
2019-01-14T10:41:16.250Z,5.37
2019-01-14T10:43:47.550Z,5.32
2019-01-14T10:46:18.790Z,5.20
2019-01-14T10:48:50.029Z,5.08
2019-01-14T10:51:21.359Z,5.19
2019-01-14T10:53:52.640Z,5.15
2019-01-14T10:56:23.804Z,5.08
2019-01-14T10:58:55.123Z,5.02
2019-01-14T11:01:26.253Z,4.97
2019-01-14T11:03:57.966Z,5.06
2019-01-14T11:06:29.202Z,5.04
2019-01-14T11:09:05.714Z,4.98
2019-01-14T11:11:33.262Z,5.06
2019-01-14T11:14:04.477Z,4.95
2019-01-14T11:16:35.631Z,4.94
2019-01-14T11:19:07.512Z,4.93
2019-01-14T11:21:38.701Z,4.97
2019-01-14T11:24:09.911Z,5.09
2019-01-14T11:26:41.157Z,5.04
2019-01-14T11:29:12.374Z,5.03
2019-01-14T11:31:43.668Z,5.06
2019-01-14T11:34:14.896Z,5.18
2019-01-14T11:36:46.174Z,5.26
2019-01-14T11:39:21.450Z,5.22
2019-01-14T11:41:54.047Z,5.21
2019-01-14T11:44:25.215Z,5.23
2019-01-14T11:46:56.480Z,5.37
2019-01-14T11:49:27.681Z,5.53
2019-01-14T11:51:58.999Z,5.47
2019-01-14T11:54:30.224Z,5.53
2019-01-14T11:57:01.503Z,5.68
2019-01-14T11:59:32.618Z,5.83
2019-01-14T12:02:03.993Z,5.93
2019-01-14T12:04:35.249Z,5.83
2019-01-14T12:07:06.509Z,5.52
2019-01-14T12:09:37.718Z,5.78
2019-01-14T12:12:08.893Z,5.91
2019-01-14T12:14:40.144Z,5.71
2019-01-14T12:17:11.391Z,5.71
2019-01-14T12:19:42.640Z,5.68
2019-01-14T12:22:13.893Z,5.80
2019-01-14T12:24:45.140Z,5.84
2019-01-14T12:27:16.429Z,5.69
2019-01-14T12:29:47.671Z,5.61
2019-01-14T12:32:18.925Z,5.61
2019-01-14T12:34:50.178Z,5.68
2019-01-14T12:37:21.528Z,5.51
2019-01-14T12:39:52.821Z,5.44
2019-01-14T12:42:24.168Z,5.44
2019-01-14T12:44:55.361Z,5.29
2019-01-14T12:47:26.632Z,5.28
2019-01-14T12:49:57.814Z,5.37
2019-01-14T12:52:29.077Z,5.31
2019-01-14T12:55:00.293Z,5.15
2019-01-14T12:57:31.468Z,4.83
2019-01-14T13:00:02.692Z,4.65
2019-01-14T13:02:33.973Z,4.47
2019-01-14T13:05:06.083Z,4.42
2019-01-14T13:07:37.325Z,4.49
2019-01-14T13:10:10.082Z,4.72
2019-01-14T13:12:41.348Z,4.70
2019-01-14T13:15:16.832Z,4.69
2019-01-14T13:17:48.125Z,4.70
2019-01-14T13:20:19.820Z,4.81
2019-01-14T13:22:51.313Z,4.97
2019-01-14T13:25:22.849Z,4.96
2019-01-14T13:27:54.127Z,4.95
2019-01-14T13:30:31.108Z,5.10
2019-01-14T13:33:02.947Z,5.27
2019-01-14T13:35:34.192Z,5.13
2019-01-14T13:38:05.462Z,4.98
2019-01-14T13:40:36.616Z,4.81
2019-01-14T13:43:07.808Z,4.73
2019-01-14T13:45:39.060Z,4.71
2019-01-14T13:48:10.549Z,4.70
2019-01-14T13:50:41.873Z,4.71
2019-01-14T13:53:13.243Z,4.77
2019-01-14T13:55:44.463Z,4.77
2019-01-14T13:58:15.754Z,4.76
2019-01-14T14:00:46.966Z,4.78
2019-01-14T14:03:18.161Z,4.78
2019-01-14T14:05:49.405Z,4.82
2019-01-14T14:08:20.710Z,4.81
2019-01-14T14:10:51.935Z,4.82
2019-01-14T14:13:23.191Z,4.79
2019-01-14T14:15:54.446Z,4.74
2019-01-14T14:18:25.691Z,4.78
2019-01-14T14:20:56.957Z,4.77
2019-01-14T14:23:28.194Z,4.70
2019-01-14T14:25:59.467Z,4.71
2019-01-14T14:28:30.752Z,4.70
2019-01-14T14:31:01.992Z,4.70
2019-01-14T14:33:33.232Z,4.77
2019-01-14T14:36:04.606Z,4.88
2019-01-14T14:38:35.849Z,4.97
2019-01-14T14:41:07.030Z,5.00
2019-01-14T14:43:38.348Z,4.88
2019-01-14T14:46:09.630Z,4.78
2019-01-14T14:48:40.945Z,4.73
2019-01-14T14:51:12.304Z,4.71
2019-01-14T14:53:43.529Z,4.61
2019-01-14T14:56:14.807Z,4.59
2019-01-14T14:58:46.059Z,4.64
2019-01-14T15:01:17.301Z,4.66
2019-01-14T15:03:48.905Z,4.67
2019-01-14T15:06:20.202Z,4.68
2019-01-14T15:08:51.464Z,4.65
2019-01-14T15:11:22.705Z,4.60
2019-01-14T15:13:53.983Z,4.54
2019-01-14T15:16:25.227Z,4.45
2019-01-14T15:18:56.487Z,4.48
2019-01-14T15:21:27.766Z,4.55
2019-01-14T15:23:59.036Z,4.57
2019-01-14T15:26:30.311Z,4.59
2019-01-14T15:29:01.528Z,4.54
2019-01-14T15:31:32.705Z,4.44
2019-01-14T15:34:03.955Z,4.39
2019-01-14T15:36:35.263Z,4.42
2019-01-14T15:39:10.144Z,4.27
2019-01-14T15:41:41.352Z,4.23
2019-01-14T15:44:12.557Z,4.16
2019-01-14T15:46:43.900Z,4.15
2019-01-14T15:49:15.091Z,4.18
2019-01-14T15:51:46.365Z,4.19
2019-01-14T15:54:17.611Z,4.22
2019-01-14T15:56:48.896Z,4.23
2019-01-14T15:59:20.124Z,4.24
2019-01-14T16:01:51.307Z,4.28
2019-01-14T16:04:22.514Z,4.24
2019-01-14T16:06:54.022Z,4.29
2019-01-14T16:09:25.309Z,4.29
2019-01-14T16:11:56.621Z,4.24
2019-01-14T16:14:27.876Z,4.21
2019-01-14T16:16:59.158Z,4.23
2019-01-14T16:19:30.469Z,4.23
2019-01-14T16:22:01.725Z,4.24
2019-01-14T16:24:33.120Z,4.19
2019-01-14T16:27:04.383Z,4.16
2019-01-14T16:29:35.518Z,4.10
2019-01-14T16:32:08.058Z,4.13
2019-01-14T16:34:39.383Z,3.94
2019-01-14T16:37:10.689Z,3.71
2019-01-14T16:39:41.942Z,3.59
2019-01-14T16:42:13.252Z,3.57
2019-01-14T16:44:44.523Z,3.56
2019-01-14T16:47:15.771Z,3.60
2019-01-14T16:49:47.010Z,3.62
2019-01-14T16:52:18.285Z,3.63
2019-01-14T16:54:49.452Z,3.64
2019-01-14T16:57:20.803Z,3.58
2019-01-14T16:59:52.073Z,3.56
2019-01-14T17:02:23.382Z,3.49
2019-01-14T17:04:54.641Z,3.45
2019-01-14T17:07:26.867Z,3.45
2019-01-14T17:09:58.229Z,3.41
2019-01-14T17:12:29.643Z,3.41
2019-01-14T17:15:00.812Z,3.33
2019-01-14T17:17:33.302Z,3.29
2019-01-14T17:20:05.813Z,3.32
2019-01-14T17:22:37.098Z,3.19
2019-01-14T17:25:09.107Z,3.33
2019-01-14T17:27:40.332Z,3.25
2019-01-14T17:30:14.136Z,3.35
2019-01-14T17:32:45.515Z,3.28
2019-01-14T17:35:17.330Z,3.30
2019-01-14T17:37:48.700Z,3.24
2019-01-14T17:40:21.116Z,3.27
2019-01-14T17:42:52.416Z,3.30
2019-01-14T17:45:23.728Z,3.42
2019-01-14T17:47:55.106Z,3.40
2019-01-14T17:50:26.366Z,3.31
2019-01-14T17:52:57.721Z,3.25
2019-01-14T17:55:29.406Z,3.09
2019-01-14T17:58:00.643Z,3.08
2019-01-14T18:00:32.267Z,3.15
2019-01-14T18:03:03.601Z,3.20
2019-01-14T18:05:34.948Z,3.20
2019-01-14T18:08:06.280Z,3.26
2019-01-14T18:10:40.219Z,3.35
2019-01-14T18:13:10.571Z,3.33
2019-01-14T18:15:41.939Z,3.39
2019-01-14T18:18:13.236Z,3.38
2019-01-14T18:20:44.596Z,3.35
2019-01-14T18:23:15.981Z,3.41
2019-01-14T18:25:47.277Z,3.42
2019-01-14T18:28:18.584Z,3.31
2019-01-14T18:30:49.907Z,3.27
2019-01-14T18:33:21.508Z,3.18
2019-01-14T18:35:55.052Z,3.09
2019-01-14T18:38:26.361Z,2.93
2019-01-14T18:40:57.881Z,2.86
2019-01-14T18:43:29.241Z,2.73
2019-01-14T18:46:00.599Z,2.56
2019-01-14T18:48:31.892Z,2.58
2019-01-14T18:51:03.245Z,2.46
2019-01-14T18:53:34.583Z,2.51
2019-01-14T18:56:05.893Z,2.36
2019-01-14T18:58:37.086Z,2.31
2019-01-14T19:01:08.442Z,2.27
2019-01-14T19:03:39.776Z,2.40
2019-01-14T19:06:11.303Z,2.47
2019-01-14T19:08:42.560Z,2.58
2019-01-14T19:11:13.786Z,2.73
2019-01-14T19:13:45.236Z,2.83
2019-01-14T19:16:16.569Z,2.87
2019-01-14T19:18:50.185Z,2.85
2019-01-14T19:21:21.491Z,2.90
2019-01-14T19:23:52.785Z,3.07
2019-01-14T19:26:24.177Z,3.13
2019-01-14T19:28:55.620Z,3.02
2019-01-14T19:31:29.909Z,3.12
2019-01-14T19:34:01.185Z,3.00
2019-01-14T19:36:32.644Z,3.04
2019-01-14T19:39:07.127Z,3.07
2019-01-14T19:41:38.434Z,2.90
2019-01-14T19:44:09.771Z,3.03
2019-01-14T19:46:41.089Z,3.07
2019-01-14T19:49:12.358Z,3.18
2019-01-14T19:51:43.760Z,3.15
2019-01-14T19:54:15.277Z,3.13
2019-01-14T19:56:46.536Z,3.05
2019-01-14T19:59:17.945Z,3.08
2019-01-14T20:01:49.147Z,3.09
2019-01-14T20:04:20.405Z,3.03
2019-01-14T20:06:51.794Z,3.08
2019-01-14T20:09:23.034Z,3.04
2019-01-14T20:11:54.383Z,2.92
2019-01-14T20:14:25.723Z,2.80
2019-01-14T20:16:57.069Z,2.74
2019-01-14T20:19:28.531Z,2.71
2019-01-14T20:22:00.037Z,2.85
2019-01-14T20:24:31.324Z,2.84
2019-01-14T20:27:02.698Z,2.98
2019-01-14T20:29:33.918Z,2.88
2019-01-14T20:32:05.238Z,2.88
2019-01-14T20:34:36.613Z,2.88
2019-01-14T20:37:07.924Z,2.86
2019-01-14T20:39:39.206Z,2.92
2019-01-14T20:42:10.571Z,2.87
2019-01-14T20:44:41.946Z,2.74
2019-01-14T20:47:13.373Z,2.79
2019-01-14T20:49:44.567Z,2.68
2019-01-14T20:52:15.998Z,2.70
2019-01-14T20:54:47.284Z,2.74
2019-01-14T20:57:18.530Z,2.65
2019-01-14T20:59:50.070Z,2.59
2019-01-14T21:02:21.509Z,2.51
2019-01-14T21:04:52.991Z,2.51
2019-01-14T21:07:24.295Z,2.32
2019-01-14T21:09:55.516Z,2.31
2019-01-14T21:12:26.774Z,2.04
2019-01-14T21:14:58.043Z,2.05
2019-01-14T21:17:29.314Z,1.88
2019-01-14T21:20:00.622Z,1.89
2019-01-14T21:22:31.815Z,1.74
2019-01-14T21:25:03.050Z,1.53
2019-01-14T21:27:34.246Z,1.58
2019-01-14T21:30:07.630Z,1.46
2019-01-14T21:32:38.877Z,1.61
2019-01-14T21:35:10.407Z,1.62
2019-01-14T21:37:41.715Z,1.70
2019-01-14T21:40:13.738Z,1.91
2019-01-14T21:42:45.054Z,1.82
2019-01-14T21:45:17.598Z,1.88
2019-01-14T21:47:48.879Z,1.93
2019-01-14T21:50:21.137Z,1.91
2019-01-14T21:52:52.480Z,1.82
2019-01-14T21:55:27.128Z,1.84
2019-01-14T21:57:58.508Z,1.64
2019-01-14T22:00:29.875Z,1.60
2019-01-14T22:03:01.188Z,1.54
2019-01-14T22:05:32.499Z,1.41
2019-01-14T22:08:03.871Z,1.45
2019-01-14T22:10:36.133Z,1.30
2019-01-14T22:13:07.488Z,1.16
2019-01-14T22:15:38.824Z,1.15
2019-01-14T22:18:10.291Z,1.39
2019-01-14T22:20:41.685Z,1.25
2019-01-14T22:23:12.886Z,1.19
2019-01-14T22:25:44.290Z,1.14
2019-01-14T22:28:15.613Z,1.06
2019-01-14T22:30:47.019Z,0.87
2019-01-14T22:33:18.235Z,1.01
2019-01-14T22:35:49.506Z,0.94
2019-01-14T22:38:20.824Z,0.84
2019-01-14T22:40:52.111Z,0.92
2019-01-14T22:43:23.362Z,0.81
2019-01-14T22:45:54.628Z,0.84
2019-01-14T22:48:25.917Z,0.81
2019-01-14T22:50:57.164Z,0.74
2019-01-14T22:53:28.391Z,0.57
2019-01-14T22:55:59.669Z,0.42
2019-01-14T22:58:30.951Z,0.51
2019-01-14T23:01:35.157Z,0.57
2019-01-14T23:04:06.558Z,0.55
2019-01-14T23:06:37.986Z,0.71
2019-01-14T23:09:11.445Z,0.53
2019-01-14T23:11:42.640Z,0.47
2019-01-14T23:14:13.892Z,0.48
2019-01-14T23:16:45.168Z,0.42
2019-01-14T23:19:16.634Z,0.37
2019-01-14T23:21:47.884Z,0.28
2019-01-14T23:24:19.114Z,0.28
2019-01-14T23:26:50.388Z,0.27
2019-01-14T23:29:21.623Z,0.25
2019-01-14T23:31:52.949Z,0.44
2019-01-14T23:34:24.190Z,0.39
2019-01-14T23:36:55.678Z,0.42
2019-01-14T23:39:27.885Z,0.31
2019-01-14T23:42:00.560Z,0.24
2019-01-14T23:44:35.057Z,0.30
2019-01-14T23:47:06.307Z,0.21
2019-01-14T23:49:38.484Z,0.19
2019-01-14T23:52:09.869Z,0.21
2019-01-14T23:54:41.135Z,0.35
2019-01-14T23:57:12.384Z,0.28
2019-01-14T23:59:43.739Z,0.20
